Time;durP1;ratioP1;P1;durP2;ratioP2;P2;SDS_P1;SDS_P2;PMS_P1;PMS_P2;Temp;Humidity;BMP_temperature;BMP_pressure;BME280_temperature;BME280_humidity;BME280_pressure;Samples;Min_cycle;Max_cycle;Signal;HPM_P1;HPM_P2
2020/12/17 00:00:22;;;;;;;22.40;11.83;;;;;;;1.95;81.88;101602.23;1677729;79;10000208;-71
2020/12/17 00:02:50;;;;;;;23.47;12.18;;;;;;;1.97;81.94;101601.53;1760978;80;21737;-72
2020/12/17 00:05:18;;;;;;;22.82;11.63;;;;;;;1.95;81.89;101596.45;1778099;78;21223;-72
2020/12/17 00:07:46;;;;;;;17.77;10.40;;;;;;;1.93;81.88;101595.80;1758050;80;21831;-72
2020/12/17 00:10:14;;;;;;;21.82;11.53;;;;;;;1.93;81.85;101598.44;1776471;78;21204;-72
2020/12/17 00:12:47;;;;;;;21.87;11.63;;;;;;;1.89;81.86;101591.88;1765571;80;21212;-72
2020/12/17 00:15:18;;;;;;;20.45;11.00;;;;;;;1.88;81.90;101596.84;1764300;80;21169;-72
2020/12/17 00:17:51;;;;;;;19.57;11.28;;;;;;;1.86;81.97;101594.86;1770602;80;21204;-71
2020/12/17 00:20:23;;;;;;;18.12;10.55;;;;;;;1.82;82.00;101594.89;1762547;80;21387;-71
2020/12/17 00:22:51;;;;;;;17.77;10.43;;;;;;;1.79;82.04;101586.83;1767065;79;21204;-72
2020/12/17 00:25:20;;;;;;;19.27;10.85;;;;;;;1.76;82.06;101587.17;1757879;80;21193;-72
2020/12/17 00:27:48;;;;;;;20.10;11.38;;;;;;;1.76;82.18;101592.45;1790857;78;21168;-73
2020/12/17 00:30:18;;;;;;;18.90;11.25;;;;;;;1.74;82.23;101585.20;1775512;80;21224;-70
2020/12/17 00:32:46;;;;;;;20.52;10.90;;;;;;;1.73;82.29;101587.52;1765735;79;21653;-71
2020/12/17 00:35:14;;;;;;;17.45;10.35;;;;;;;1.71;82.33;101588.68;1775488;79;21227;-72
2020/12/17 00:37:42;;;;;;;19.60;11.50;;;;;;;1.70;82.39;101590.50;1771712;80;21657;-72
2020/12/17 00:40:13;;;;;;;20.08;10.32;;;;;;;1.70;82.45;101593.63;1773416;80;21167;-72
2020/12/17 00:42:46;;;;;;;19.92;11.33;;;;;;;1.69;82.55;101588.05;1772593;80;21563;-72
2020/12/17 00:45:14;;;;;;;20.45;11.22;;;;;;;1.68;82.61;101591.19;1777235;79;21367;-72
2020/12/17 00:47:43;;;;;;;22.05;11.28;;;;;;;1.71;82.67;101589.53;1763438;80;21196;-73
2020/12/17 00:50:11;;;;;;;18.90;10.55;;;;;;;1.75;82.68;101594.77;1807746;77;21234;-71
2020/12/17 00:52:41;;;;;;;19.52;10.95;;;;;;;1.79;82.66;101586.83;1796981;78;21203;-72
2020/12/17 00:55:10;;;;;;;19.70;10.75;;;;;;;1.83;82.67;101587.30;1769203;80;21193;-72
2020/12/17 00:57:38;;;;;;;20.05;10.72;;;;;;;1.84;82.65;101590.25;1754062;80;21375;-72
2020/12/17 01:00:08;;;;;;;19.87;10.63;;;;;;;1.82;82.66;101584.35;1788351;78;21219;-72
2020/12/17 01:02:36;;;;;;;20.00;11.57;;;;;;;1.83;82.66;101585.98;1783342;78;21535;-71
2020/12/17 01:05:05;;;;;;;18.05;9.98;;;;;;;1.85;82.68;101587.45;1787220;78;21181;-71
2020/12/17 01:07:33;;;;;;;19.23;11.40;;;;;;;1.90;82.64;101583.47;1783094;78;21491;-71
2020/12/17 01:10:01;;;;;;;19.60;10.55;;;;;;;1.92;82.65;101581.00;1781530;78;21981;-72
2020/12/17 01:12:31;;;;;;;20.88;10.72;;;;;;;1.97;82.66;101577.82;1793631;78;21211;-72
2020/12/17 01:14:59;;;;;;;19.55;11.03;;;;;;;1.98;82.61;101588.20;1787640;78;21148;-72
2020/12/17 01:17:27;;;;;;;20.48;11.00;;;;;;;1.99;82.60;101579.30;1764938;80;21593;-73
2020/12/17 01:19:55;;;;;;;18.07;10.15;;;;;;;2.02;82.57;101579.45;1776533;79;21532;-75
2020/12/17 01:22:23;;;;;;;18.87;10.90;;;;;;;2.02;82.51;101576.81;1769578;80;21764;-72
2020/12/17 01:24:51;;;;;;;16.90;10.45;;;;;;;2.01;82.49;101569.41;1761439;80;21129;-72
2020/12/17 01:27:19;;;;;;;20.10;10.23;;;;;;;2.03;82.47;101566.59;1766633;79;21146;-72
2020/12/17 01:29:48;;;;;;;19.42;10.93;;;;;;;2.01;82.42;101564.14;1780800;79;21610;-72
2020/12/17 01:32:17;;;;;;;17.30;10.15;;;;;;;2.00;82.42;101557.21;1778593;80;21512;-71
2020/12/17 01:34:45;;;;;;;18.87;10.03;;;;;;;1.99;82.37;101560.85;1760367;80;21878;-72
2020/12/17 01:37:15;;;;;;;19.37;10.38;;;;;;;1.97;82.37;101552.29;1766319;79;21575;-72
2020/12/17 01:39:43;;;;;;;19.30;10.50;;;;;;;1.97;82.35;101554.11;1754940;80;21214;-72
2020/12/17 01:42:11;;;;;;;20.68;10.23;;;;;;;1.94;82.39;101551.83;1790717;79;21061;-73
2020/12/17 01:47:32;;;;;;;18.23;9.67;;;;;;;1.96;82.38;101544.08;1800150;79;22458;-75
2020/12/17 01:50:05;;;;;;;18.42;10.15;;;;;;;1.93;82.37;101544.92;1771973;79;21162;-74
2020/12/17 01:52:33;;;;;;;18.62;10.25;;;;;;;1.88;82.36;101541.02;1758044;80;21433;-75
2020/12/17 01:55:01;;;;;;;17.23;10.20;;;;;;;1.85;82.43;101536.09;1793107;79;21129;-75
2020/12/17 01:57:32;;;;;;;15.63;8.95;;;;;;;1.87;82.48;101543.80;1803258;79;21153;-74
2020/12/17 02:00:05;;;;;;;15.88;9.33;;;;;;;1.85;82.49;101545.31;1806175;79;21144;-74
2020/12/17 02:02:34;;;;;;;16.65;9.60;;;;;;;1.80;82.47;101552.91;1804171;79;21599;-75
2020/12/17 02:05:04;;;;;;;16.00;8.73;;;;;;;1.80;82.51;101557.36;1765635;80;21203;-75
2020/12/17 02:07:34;;;;;;;17.90;10.10;;;;;;;1.80;82.57;101548.95;1778393;80;21623;-75
2020/12/17 02:10:03;;;;;;;15.85;9.55;;;;;;;1.78;82.58;101553.59;1733792;80;21204;-75
2020/12/17 02:12:48;;;;;;;15.32;8.18;;;;;;;1.78;82.59;101552.27;1795451;79;21120;-75
2020/12/17 02:15:18;;;;;;;16.75;9.90;;;;;;;1.78;82.62;101558.05;1756005;80;21149;-74
2020/12/17 02:17:48;;;;;;;16.82;9.33;;;;;;;1.72;82.60;101564.00;1803357;79;21531;-75
2020/12/17 02:20:16;;;;;;;15.15;8.98;;;;;;;1.69;82.65;101566.48;1764353;80;21137;-74
2020/12/17 02:22:44;;;;;;;17.42;9.73;;;;;;;1.67;82.67;101568.95;1724899;81;21747;-75
2020/12/17 02:25:14;;;;;;;16.57;9.93;;;;;;;1.63;82.72;101571.94;1755103;80;21598;-74
2020/12/17 02:27:42;;;;;;;16.77;9.53;;;;;;;1.62;82.82;101573.44;1735424;81;21607;-75
2020/12/17 02:30:11;;;;;;;17.95;10.00;;;;;;;1.64;82.87;101564.84;1746970;81;21060;-74
2020/12/17 02:32:39;;;;;;;17.35;9.65;;;;;;;1.68;82.91;101563.53;1768668;80;21191;-74
2020/12/17 02:35:08;;;;;;;17.07;9.60;;;;;;;1.73;82.94;101559.05;1780510;79;21187;-75
2020/12/17 02:37:36;;;;;;;17.70;9.70;;;;;;;1.75;82.93;101557.08;1740428;80;21149;-75
2020/12/17 02:40:05;;;;;;;16.17;9.28;;;;;;;1.75;82.92;101556.57;1777305;80;21183;-74
2020/12/17 02:42:33;;;;;;;15.38;8.63;;;;;;;1.73;82.96;101552.47;1761224;80;21558;-74
2020/12/17 02:45:00;;;;;;;14.75;8.38;;;;;;;1.75;82.93;101555.76;1779078;80;21096;-75
2020/12/17 02:47:28;;;;;;;11.53;6.53;;;;;;;1.74;82.88;101560.18;1733745;80;21089;-74
2020/12/17 02:49:56;;;;;;;14.93;8.15;;;;;;;1.74;82.90;101565.95;1785842;79;21594;-74
2020/12/17 02:52:24;;;;;;;13.75;7.62;;;;;;;1.70;82.89;101566.80;1764799;80;21161;-75
2020/12/17 02:54:52;;;;;;;16.90;8.95;;;;;;;1.64;82.91;101566.98;1782765;79;21372;-75
2020/12/17 02:57:20;;;;;;;15.08;9.05;;;;;;;1.56;82.93;101567.05;1749664;80;21145;-74
2020/12/17 02:59:50;;;;;;;14.38;8.35;;;;;;;1.50;83.00;101567.73;1774544;80;21064;-75
2020/12/17 03:02:18;;;;;;;18.25;9.75;;;;;;;1.46;83.09;101573.52;1751238;81;21588;-74
2020/12/17 03:04:46;;;;;;;16.97;9.50;;;;;;;1.42;83.24;101578.31;1794091;79;21121;-75
2020/12/17 03:07:15;;;;;;;12.82;7.70;;;;;;;1.43;83.35;101585.20;1738587;80;21384;-75
2020/12/17 03:09:45;;;;;;;16.12;8.58;;;;;;;1.46;83.44;101578.78;1777684;79;21187;-74
2020/12/17 03:12:13;;;;;;;17.62;8.78;;;;;;;1.44;83.40;101580.26;1756994;80;21499;-74
2020/12/17 03:14:40;;;;;;;15.98;7.87;;;;;;;1.39;83.47;101579.97;1812483;79;21060;-75
2020/12/17 03:17:09;;;;;;;14.07;8.18;;;;;;;1.42;83.61;101579.63;1750798;81;21121;-75
2020/12/17 03:19:38;;;;;;;16.00;9.65;;;;;;;1.43;83.63;101581.26;1783478;80;21375;-75
2020/12/17 03:22:06;;;;;;;15.28;9.20;;;;;;;1.39;83.67;101578.65;1753299;80;21586;-75
2020/12/17 03:24:34;;;;;;;13.98;8.70;;;;;;;1.36;83.75;101584.26;1772286;80;21660;-75
2020/12/17 03:27:02;;;;;;;15.45;9.68;;;;;;;1.38;83.84;101590.16;1727193;80;21192;-75
2020/12/17 03:29:30;;;;;;;13.83;8.03;;;;;;;1.42;83.91;101594.61;1753272;81;21060;-75
2020/12/17 03:31:57;;;;;;;15.10;8.15;;;;;;;1.44;83.99;101593.42;1753963;80;21294;-75
2020/12/17 03:34:25;;;;;;;16.10;8.45;;;;;;;1.46;83.98;101593.27;1796301;79;21152;-75
2020/12/17 03:36:53;;;;;;;15.68;8.53;;;;;;;1.44;83.98;101601.31;1752814;80;21612;-76
2020/12/17 03:39:21;;;;;;;15.40;9.48;;;;;;;1.45;83.95;101595.08;1783550;80;21099;-75
2020/12/17 03:41:49;;;;;;;15.23;8.43;;;;;;;1.47;84.04;101600.16;1757461;80;21058;-75
2020/12/17 03:44:17;;;;;;;13.62;7.72;;;;;;;1.48;84.04;101606.59;1780231;79;21540;-75
2020/12/17 03:46:45;;;;;;;14.35;8.45;;;;;;;1.47;84.05;101602.80;1751946;81;21140;-75
2020/12/17 03:49:13;;;;;;;14.90;8.48;;;;;;;1.44;84.06;101609.22;1784057;80;21053;-75
2020/12/17 03:51:41;;;;;;;14.25;8.38;;;;;;;1.42;84.12;101611.72;1750475;81;21168;-75
2020/12/17 03:54:08;;;;;;;16.07;9.08;;;;;;;1.43;84.21;101615.48;1757957;80;21110;-74
2020/12/17 03:56:36;;;;;;;16.55;7.75;;;;;;;1.45;84.23;101614.83;1779124;80;21377;-74
2020/12/17 03:59:04;;;;;;;14.98;9.05;;;;;;;1.46;84.27;101610.38;1753099;81;21680;-74
2020/12/17 04:01:32;;;;;;;14.13;7.72;;;;;;;1.47;84.26;101605.42;1783464;80;21176;-75
2020/12/17 04:04:00;;;;;;;15.45;7.85;;;;;;;1.43;84.27;101607.58;1752176;80;21097;-74
2020/12/17 04:06:28;;;;;;;15.85;8.83;;;;;;;1.43;84.35;101613.34;1773792;80;21096;-74
2020/12/17 04:08:57;;;;;;;14.30;9.00;;;;;;;1.39;84.37;101610.23;1755695;80;21205;-75
2020/12/17 04:11:25;;;;;;;16.23;8.83;;;;;;;1.40;84.48;101612.69;1766504;80;21141;-74
2020/12/17 04:13:53;;;;;;;14.73;8.80;;;;;;;1.42;84.53;101613.03;1775908;79;21040;-75
2020/12/17 04:16:21;;;;;;;15.85;9.45;;;;;;;1.45;84.55;101610.88;1737930;81;21144;-75
2020/12/17 04:18:48;;;;;;;16.70;9.58;;;;;;;1.51;84.58;101617.25;1759126;81;21133;-75
2020/12/17 04:21:17;;;;;;;18.60;9.55;;;;;;;1.56;84.60;101622.34;1777699;79;21350;-74
2020/12/17 04:23:45;;;;;;;17.32;10.28;;;;;;;1.55;84.57;101619.39;1752750;80;21183;-75
2020/12/17 04:26:15;;;;;;;15.95;8.95;;;;;;;1.58;84.65;101619.05;1762766;79;21162;-75
2020/12/17 04:28:43;;;;;;;15.43;9.33;;;;;;;1.60;84.60;101617.55;1750813;80;21208;-75
2020/12/17 04:31:11;;;;;;;17.57;10.05;;;;;;;1.61;84.60;101622.66;1773202;80;21143;-75
2020/12/17 04:33:39;;;;;;;18.60;10.23;;;;;;;1.60;84.60;101622.31;1776488;80;21359;-74
2020/12/17 04:36:07;;;;;;;15.95;8.48;;;;;;;1.60;84.63;101621.00;1761030;81;21132;-74
2020/12/17 04:38:35;;;;;;;16.20;8.85;;;;;;;1.59;84.63;101623.31;1761002;81;21124;-75
2020/12/17 04:41:05;;;;;;;15.25;9.00;;;;;;;1.58;84.66;101623.00;1735608;80;21629;-75
2020/12/17 04:43:33;;;;;;;17.12;9.93;;;;;;;1.59;84.66;101624.62;1753799;80;21181;-75
2020/12/17 04:46:04;;;;;;;17.65;10.58;;;;;;;1.63;84.73;101621.97;1753172;81;21381;-74
2020/12/17 04:48:33;;;;;;;18.32;10.30;;;;;;;1.67;84.71;101622.95;1777105;79;21147;-74
2020/12/17 04:51:00;;;;;;;18.82;9.93;;;;;;;1.69;84.74;101627.05;1758459;80;22413;-75
2020/12/17 04:53:28;;;;;;;17.45;9.80;;;;;;;1.71;84.74;101628.19;1795659;78;21178;-75
2020/12/17 04:55:57;;;;;;;16.10;9.48;;;;;;;1.72;84.66;101626.71;1776269;79;21147;-75
2020/12/17 04:58:25;;;;;;;16.00;9.83;;;;;;;1.73;84.66;101622.27;1753579;81;22353;-74
2020/12/17 05:00:54;;;;;;;18.12;10.95;;;;;;;1.71;84.62;101621.13;1761894;80;21152;-75
2020/12/17 05:03:23;;;;;;;19.52;11.15;;;;;;;1.71;84.70;101616.34;1752972;81;21093;-75
2020/12/17 05:05:54;;;;;;;19.48;10.72;;;;;;;1.67;84.62;101620.31;1774820;79;21444;-74
2020/12/17 05:08:22;;;;;;;17.70;10.20;;;;;;;1.63;84.68;101623.79;1759382;80;21176;-74
2020/12/17 05:10:51;;;;;;;16.62;9.68;;;;;;;1.66;84.78;101618.18;1755915;80;21363;-74
2020/12/17 05:13:20;;;;;;;15.43;9.25;;;;;;;1.71;84.80;101621.60;1773724;79;21555;-75
2020/12/17 05:15:47;;;;;;;15.78;9.80;;;;;;;1.75;84.86;101621.61;1781518;80;21163;-74
2020/12/17 05:18:16;;;;;;;16.52;10.05;;;;;;;1.81;84.84;101619.57;1773579;79;21100;-75
2020/12/17 05:20:44;;;;;;;15.68;9.43;;;;;;;1.84;84.82;101616.59;1778357;80;21092;-75
2020/12/17 05:23:13;;;;;;;16.20;9.95;;;;;;;1.90;84.79;101619.86;1749389;81;21282;-74
2020/12/17 05:25:41;;;;;;;17.20;10.63;;;;;;;1.94;84.72;101624.28;1773256;79;21145;-75
2020/12/17 05:28:09;;;;;;;17.27;10.40;;;;;;;1.96;84.68;101625.75;1743970;80;21040;-74
2020/12/17 05:30:38;;;;;;;16.37;9.68;;;;;;;2.00;84.68;101625.72;1700225;82;21163;-75
2020/12/17 05:33:06;;;;;;;17.82;9.35;;;;;;;2.02;84.61;101622.42;1761988;79;21251;-75
2020/12/17 05:35:38;;;;;;;15.88;9.18;;;;;;;2.04;84.53;101618.28;1781381;79;21764;-74
2020/12/17 05:38:11;;;;;;;14.70;8.68;;;;;;;2.07;84.47;101631.96;1776259;80;21560;-74
2020/12/17 05:40:43;;;;;;;13.45;8.23;;;;;;;2.11;84.39;101636.38;1748484;80;21201;-73
2020/12/17 05:43:11;;;;;;;15.65;9.80;;;;;;;2.11;84.30;101636.38;1776274;80;21107;-75
2020/12/17 05:45:39;;;;;;;15.25;9.90;;;;;;;2.08;84.27;101641.50;1761769;80;21536;-75
2020/12/17 05:48:20;;;;;;;16.42;9.85;;;;;;;2.08;84.21;101642.00;1777928;80;21391;-74
2020/12/17 05:50:58;;;;;;;15.85;10.48;;;;;;;2.06;84.14;101647.93;1759467;80;21202;-74
2020/12/17 05:53:27;;;;;;;16.62;10.75;;;;;;;2.03;84.11;101650.41;1782879;79;21167;-74
2020/12/17 05:56:05;;;;;;;19.45;10.98;;;;;;;2.08;84.07;101651.22;1761471;80;21136;-74
2020/12/17 05:58:43;;;;;;;17.40;11.38;;;;;;;2.09;84.01;101658.13;1786085;79;21100;-74
2020/12/17 06:01:16;;;;;;;17.55;11.88;;;;;;;2.09;83.96;101656.31;1770383;80;21438;-74
2020/12/17 06:03:45;;;;;;;17.65;10.35;;;;;;;2.06;83.95;101662.42;1757015;81;21290;-74
2020/12/17 06:06:14;;;;;;;18.20;10.30;;;;;;;2.03;83.94;101662.27;1766145;80;21196;-75
2020/12/17 06:08:42;;;;;;;18.52;11.40;;;;;;;2.03;83.91;101663.59;1790194;78;21052;-75
2020/12/17 06:11:12;;;;;;;19.30;11.30;;;;;;;2.02;83.91;101661.14;1756600;80;21182;-73
2020/12/17 06:13:43;;;;;;;17.50;11.10;;;;;;;2.02;83.95;101664.59;1777723;79;21378;-74
2020/12/17 06:16:12;;;;;;;17.77;11.65;;;;;;;2.06;83.96;101665.88;1787289;79;21595;-74
2020/12/17 06:18:58;;;;;;;19.62;11.18;;;;;;;2.13;83.98;101666.00;1744486;81;21147;-75
2020/12/17 06:21:27;;;;;;;16.90;10.70;;;;;;;2.19;83.91;101675.04;1760584;80;21147;-74
2020/12/17 06:23:59;;;;;;;17.05;10.58;;;;;;;2.20;83.81;101672.21;1764007;80;21198;-75
2020/12/17 06:26:27;;;;;;;18.98;10.80;;;;;;;2.20;83.70;101677.48;1766272;79;21351;-73
2020/12/17 06:28:54;;;;;;;19.15;12.13;;;;;;;2.19;83.69;101678.48;1767452;79;21472;-75
2020/12/17 06:31:26;;;;;;;18.62;12.18;;;;;;;2.19;83.70;101676.36;1746480;79;22093;-75
2020/12/17 06:34:05;;;;;;;17.65;11.08;;;;;;;2.22;83.71;101682.60;1788119;79;21200;-75
2020/12/17 06:36:44;;;;;;;19.12;10.72;;;;;;;2.21;83.61;101682.28;1745281;80;21175;-75
2020/12/17 06:39:12;;;;;;;17.07;10.38;;;;;;;2.20;83.58;101680.63;1732030;81;22252;-75
2020/12/17 06:41:40;;;;;;;16.77;10.40;;;;;;;2.22;83.57;101679.97;1740427;80;21172;-74
2020/12/17 06:44:28;;;;;;;19.05;11.00;;;;;;;2.25;83.56;101680.94;1756677;80;21192;-75
2020/12/17 06:46:59;;;;;;;16.27;10.65;;;;;;;2.26;83.54;101683.38;1781991;79;21235;-73
2020/12/17 06:49:29;;;;;;;17.42;10.68;;;;;;;2.24;83.47;101679.30;1750489;80;21621;-75
2020/12/17 06:52:09;;;;;;;16.80;10.45;;;;;;;2.22;83.48;101679.46;1772944;80;21398;-75
2020/12/17 06:54:41;;;;;;;14.78;9.73;;;;;;;2.25;83.50;101686.20;1762739;80;21181;-74
2020/12/17 06:57:14;;;;;;;16.82;10.23;;;;;;;2.30;83.46;101693.08;1784642;79;21084;-74
2020/12/17 06:59:46;;;;;;;18.05;11.15;;;;;;;2.33;83.42;101698.00;1801275;79;21158;-74
2020/12/17 07:02:18;;;;;;;15.35;9.68;;;;;;;2.34;83.37;101698.35;1758661;81;21179;-74
2020/12/17 07:04:49;;;;;;;;;;;;;;;2.34;83.34;101697.03;1742096;81;22356;-74
2020/12/17 07:07:20;;;;;;;23.10;13.00;;;;;;;2.31;83.30;101697.38;1782996;79;20259;-74
2020/12/17 07:09:54;;;;;;;28.85;10.78;;;;;;;2.29;83.33;101693.58;1759293;80;21144;-75
2020/12/17 07:12:40;;;;;;;19.50;10.43;;;;;;;2.28;83.26;101691.13;1778610;80;21152;-74
2020/12/17 07:15:33;;;;;;;19.37;10.18;;;;;;;2.25;83.24;101698.07;1758041;80;21109;-75
2020/12/17 07:18:24;;;;;;;15.57;9.80;;;;;;;2.29;83.36;101694.08;1762268;79;22819;-73
2020/12/17 07:21:05;;;;;;;18.87;11.40;;;;;;;2.27;83.40;101700.86;1730398;81;21148;-73
2020/12/17 07:23:38;;;;;;;19.35;10.58;;;;;;;2.34;83.45;101708.89;1734994;81;21423;-72
2020/12/17 07:26:15;;;;;;;18.32;10.40;;;;;;;2.43;83.40;101708.33;1734860;82;21195;-73
2020/12/17 07:28:53;;;;;;;17.73;10.38;;;;;;;2.49;83.33;101709.77;1732478;81;21238;-73
2020/12/17 07:31:26;;;;;;;17.05;10.95;;;;;;;2.56;83.33;101711.20;1729900;82;21202;-72
2020/12/17 07:33:53;;;;;;;;;;;;;;;2.56;83.22;101716.48;1726789;81;21145;-71
2020/12/17 07:36:47;;;;;;;25.88;15.45;;;;;;;2.49;83.08;101716.36;1722453;81;20696;-73
2020/12/17 07:39:16;;;;;;;28.85;15.70;;;;;;;2.40;83.03;101718.72;1725133;81;21195;-71
2020/12/17 07:41:44;;;;;;;23.52;13.68;;;;;;;2.33;83.03;101722.55;1721484;81;21215;-71
2020/12/17 07:44:34;;;;;;;24.80;14.85;;;;;;;2.35;83.12;101718.44;1724614;81;21204;-72
2020/12/17 07:47:19;;;;;;;20.08;12.03;;;;;;;2.34;83.09;101722.89;1732250;82;21104;-72
2020/12/17 07:49:47;;;;;;;19.05;12.10;;;;;;;2.35;83.21;101731.63;1734538;81;21393;-71
2020/12/17 07:52:35;;;;;;;20.92;12.37;;;;;;;2.38;83.22;101728.64;1714710;81;21096;-72
2020/12/17 07:55:03;;;;;;;19.30;11.48;;;;;;;2.37;83.11;101736.23;1731884;81;21140;-71
2020/12/17 07:57:31;;;;;;;22.50;11.60;;;;;;;2.34;83.09;101732.63;1724253;81;21175;-70
2020/12/17 07:59:59;;;;;;;23.02;11.90;;;;;;;2.29;83.11;101731.81;1727343;81;21548;-71
2020/12/17 08:02:28;;;;;;;21.80;12.33;;;;;;;2.26;83.16;101732.16;1729142;81;21378;-72
2020/12/17 08:04:56;;;;;;;18.85;11.25;;;;;;;2.22;83.18;101732.18;1734847;81;21088;-73
2020/12/17 08:07:24;;;;;;;20.62;11.35;;;;;;;2.25;83.25;101725.25;1729254;81;21701;-71
2020/12/17 08:09:59;;;;;;;19.45;12.85;;;;;;;2.26;83.31;101730.83;1737206;82;21105;-72
2020/12/17 08:12:27;;;;;;;19.35;13.25;;;;;;;2.26;83.33;101724.24;1707924;84;21081;-71
2020/12/17 08:15:08;;;;;;;18.52;12.25;;;;;;;2.29;83.41;101719.13;1731590;81;21684;-72
2020/12/17 08:17:36;;;;;;;20.88;11.90;;;;;;;2.30;83.43;101724.72;1716802;82;21153;-72
2020/12/17 08:20:04;;;;;;;17.80;11.25;;;;;;;2.34;83.50;101725.53;1731714;81;21464;-72
2020/12/17 08:22:32;;;;;;;16.60;10.98;;;;;;;2.43;83.51;101728.92;1731673;81;21213;-72
2020/12/17 08:25:06;;;;;;;15.65;10.20;;;;;;;2.52;83.41;101734.47;1660219;82;21179;-73
2020/12/17 08:27:34;;;;;;;17.42;11.50;;;;;;;2.57;83.39;101733.97;1714033;81;21211;-72
2020/12/17 08:30:03;;;;;;;20.15;11.78;;;;;;;2.63;83.37;101731.11;1729228;81;21211;-73
2020/12/17 08:32:31;;;;;;;19.02;11.75;;;;;;;2.67;83.29;101736.38;1730354;82;21192;-73
2020/12/17 08:34:59;;;;;;;19.57;10.82;;;;;;;2.69;83.22;101731.22;1727511;81;21199;-73
2020/12/17 08:37:27;;;;;;;16.52;10.35;;;;;;;2.73;83.13;101739.60;1731774;81;21147;-75
2020/12/17 08:39:58;;;;;;;17.50;11.30;;;;;;;2.74;83.01;101738.13;1729885;81;21175;-73
2020/12/17 08:42:33;;;;;;;16.30;10.68;;;;;;;2.74;83.00;101742.59;1726389;82;21217;-73
2020/12/17 08:45:08;;;;;;;17.70;10.68;;;;;;;2.78;83.01;101737.27;1728881;81;21192;-71
2020/12/17 08:47:41;;;;;;;24.27;12.93;;;;;;;2.77;82.90;101733.00;1730616;81;21159;-71
2020/12/17 08:50:09;;;;;;;32.65;16.42;;;;;;;2.78;82.87;101738.59;1715013;81;21120;-71
2020/12/17 08:52:37;;;;;;;35.30;17.23;;;;;;;2.81;82.86;101742.20;1734991;82;21346;-71
2020/12/17 08:55:07;;;;;;;33.53;18.02;;;;;;;2.86;82.78;101744.30;1736028;82;21171;-72
2020/12/17 08:57:35;;;;;;;32.55;17.12;;;;;;;2.86;82.71;101743.80;1733869;81;21315;-72
2020/12/17 09:00:19;;;;;;;32.35;17.30;;;;;;;2.90;82.70;101743.78;1735987;82;21180;-70
2020/12/17 09:02:47;;;;;;;28.17;15.50;;;;;;;2.93;82.67;101744.75;1733493;81;21191;-71
2020/12/17 09:05:16;;;;;;;26.07;14.50;;;;;;;2.97;82.58;101746.53;1734591;82;22405;-71
2020/12/17 09:07:49;;;;;;;24.60;13.95;;;;;;;2.97;82.47;101742.08;1723900;81;21120;-71
2020/12/17 09:10:17;;;;;;;21.40;13.70;;;;;;;3.00;82.42;101740.91;1682277;82;21717;-71
2020/12/17 09:12:45;;;;;;;20.97;13.28;;;;;;;3.03;82.34;101740.05;1724671;81;21150;-71
2020/12/17 09:15:14;;;;;;;22.58;13.30;;;;;;;3.02;82.26;101741.02;1730999;81;21140;-71
2020/12/17 09:17:42;;;;;;;22.52;13.95;;;;;;;3.05;82.19;101743.31;1732907;81;21388;-72
2020/12/17 09:20:20;;;;;;;22.73;14.68;;;;;;;3.05;82.11;101741.17;1731142;81;21666;-72
2020/12/17 09:22:48;;;;;;;22.48;13.90;;;;;;;3.04;82.01;101741.68;1734488;81;21580;-72
2020/12/17 09:25:20;;;;;;;22.60;14.45;;;;;;;3.03;81.91;101744.00;1731143;81;21738;-71
2020/12/17 09:27:48;;;;;;;20.17;12.90;;;;;;;3.01;81.90;101744.67;1707978;82;21630;-72
2020/12/17 09:30:20;;;;;;;20.48;13.70;;;;;;;3.00;81.94;101734.30;1735212;81;21659;-73
2020/12/17 09:32:59;;;;;;;;;;;;;;;2.98;81.88;101734.47;1734585;81;21221;-72
2020/12/17 09:35:35;;;;;;;20.05;12.33;;;;;;;2.94;81.81;101741.11;1726243;82;20276;-73
2020/12/17 09:38:07;;;;;;;20.10;12.90;;;;;;;2.91;81.84;101742.77;1775345;80;21206;-72
2020/12/17 09:40:44;;;;;;;22.95;13.20;;;;;;;2.90;81.83;101737.69;1778961;80;21132;-71
2020/12/17 09:43:15;;;;;;;19.02;12.63;;;;;;;2.94;81.91;101737.15;1780382;80;21543;-72
2020/12/17 09:45:44;;;;;;;22.82;13.75;;;;;;;2.99;81.94;101735.28;1776770;80;21205;-71
2020/12/17 09:48:22;;;;;;;24.52;13.70;;;;;;;3.01;81.94;101735.44;1756429;80;21171;-73
2020/12/17 09:51:00;;;;;;;21.05;13.45;;;;;;;3.03;81.90;101730.81;1768977;79;21198;-73
2020/12/17 09:53:29;;;;;;;18.95;11.65;;;;;;;3.07;81.91;101733.09;1769353;80;21159;-72
2020/12/17 09:55:57;;;;;;;19.00;11.50;;;;;;;3.09;81.85;101739.81;1771857;80;21355;-73
2020/12/17 09:58:25;;;;;;;19.87;13.58;;;;;;;3.11;81.72;101733.05;1734257;82;21199;-72
2020/12/17 10:00:53;;;;;;;22.22;13.45;;;;;;;3.11;81.69;101737.02;1771955;80;21254;-72
2020/12/17 10:03:21;;;;;;;20.95;12.45;;;;;;;3.14;81.69;101741.94;1774951;80;21225;-72
2020/12/17 10:05:49;;;;;;;23.85;14.75;;;;;;;3.17;81.63;101733.66;1777156;80;21100;-72
2020/12/17 10:08:18;;;;;;;27.58;15.35;;;;;;;3.14;81.58;101739.30;1764021;79;22079;-72
2020/12/17 10:10:46;;;;;;;24.90;14.78;;;;;;;3.15;81.53;101739.61;1766686;80;21183;-78
2020/12/17 10:13:14;;;;;;;24.10;15.38;;;;;;;3.12;81.43;101732.86;1767262;79;21191;-72
2020/12/17 10:15:41;;;;;;;27.37;15.98;;;;;;;3.08;81.41;101733.41;1738114;82;21170;-73
2020/12/17 10:18:10;;;;;;;26.27;16.27;;;;;;;3.10;81.46;101730.91;1710567;81;21143;-72
2020/12/17 10:20:38;;;;;;;26.30;14.68;;;;;;;3.16;81.47;101728.04;1716545;83;21510;-73
2020/12/17 10:23:06;;;;;;;25.90;15.20;;;;;;;3.17;81.39;101723.91;1734360;81;21154;-73
2020/12/17 10:25:33;;;;;;;20.37;13.53;;;;;;;3.16;81.38;101728.04;1702263;82;21638;-71
2020/12/17 10:28:01;;;;;;;26.15;14.53;;;;;;;3.19;81.36;101729.00;1693779;82;21200;-72
2020/12/17 10:30:29;;;;;;;22.70;14.65;;;;;;;3.19;81.32;101726.36;1731954;81;21072;-73
2020/12/17 10:32:57;;;;;;;27.10;15.85;;;;;;;3.20;81.34;101723.56;1730393;82;21546;-71
2020/12/17 10:35:26;;;;;;;25.30;15.05;;;;;;;3.23;81.34;101727.67;1732815;81;21124;-73
2020/12/17 10:37:53;;;;;;;24.32;14.68;;;;;;;3.26;81.32;101732.59;1736246;82;21180;-73
2020/12/17 10:40:21;;;;;;;25.60;15.32;;;;;;;3.26;81.29;101729.95;1733398;81;21171;-72
2020/12/17 10:42:51;;;;;;;25.25;15.75;;;;;;;3.27;81.23;101729.76;1725240;82;21623;-74
2020/12/17 10:45:19;;;;;;;27.02;16.23;;;;;;;3.34;81.15;101736.97;1709891;81;21393;-72
2020/12/17 10:47:47;;;;;;;26.50;15.80;;;;;;;3.31;81.07;101728.89;1728685;81;21207;-73
2020/12/17 10:50:15;;;;;;;26.35;16.75;;;;;;;3.28;81.00;101727.93;1717797;81;21211;-73
2020/12/17 10:52:44;;;;;;;25.62;16.52;;;;;;;3.24;80.99;101724.84;1730107;81;21218;-73
2020/12/17 10:55:12;;;;;;;26.93;16.80;;;;;;;3.22;81.00;101728.14;1726819;81;21211;-72
2020/12/17 10:57:41;;;;;;;26.80;16.50;;;;;;;3.26;80.97;101732.59;1720564;81;21535;-72
2020/12/17 11:00:10;;;;;;;26.60;16.52;;;;;;;3.25;80.92;101734.89;1714638;81;21114;-73
2020/12/17 11:02:38;;;;;;;28.77;17.73;;;;;;;3.22;80.93;101736.56;1733057;82;21220;-73
2020/12/17 11:05:06;;;;;;;30.27;17.20;;;;;;;3.21;80.95;101738.90;1732312;81;21168;-72
2020/12/17 11:07:35;;;;;;;26.33;16.05;;;;;;;3.22;80.98;101740.53;1731697;81;22371;-73
2020/12/17 11:10:04;;;;;;;24.37;15.48;;;;;;;3.27;81.03;101739.50;1727852;81;21207;-72
2020/12/17 11:12:32;;;;;;;24.07;16.07;;;;;;;3.27;80.95;101737.68;1723955;81;21686;-71
2020/12/17 11:15:00;;;;;;;27.00;15.75;;;;;;;3.22;80.84;101737.89;1726331;81;21631;-72
2020/12/17 11:17:28;;;;;;;31.00;18.15;;;;;;;3.19;80.84;101740.88;1726938;81;21234;-74
2020/12/17 11:19:56;;;;;;;25.68;17.50;;;;;;;3.15;80.88;101739.61;1726418;82;21223;-73
2020/12/17 11:22:24;;;;;;;27.95;17.67;;;;;;;3.12;80.91;101742.60;1726826;81;21703;-74
2020/12/17 11:24:52;;;;;;;28.60;18.17;;;;;;;3.11;80.96;101741.78;1749639;80;21252;-72
2020/12/17 11:27:20;;;;;;;26.25;17.70;;;;;;;3.11;80.95;101750.21;1777573;80;21167;-71
2020/12/17 11:29:48;;;;;;;29.37;17.37;;;;;;;3.09;80.99;101748.23;1771938;80;21232;-72
2020/12/17 11:32:20;;;;;;;25.60;16.15;;;;;;;3.07;80.99;101744.97;1773009;80;21191;-72
2020/12/17 11:34:48;;;;;;;26.60;17.37;;;;;;;3.09;81.07;101745.59;1774406;79;21370;-73